Time;durP1;ratioP1;P1;durP2;ratioP2;P2;SDS_P1;SDS_P2;PMS_P1;PMS_P2;Temp;Humidity;BMP_temperature;BMP_pressure;BME280_temperature;BME280_humidity;BME280_pressure;Samples;Min_cycle;Max_cycle;Signal;HPM_P1;HPM_P2
2023/10/10 00:02:19;;;;;;;0.00;0.00;;;14.10;99.90;;;;;;5051148;28;20112;-79
2023/10/10 00:04:49;;;;;;;0.08;0.08;;;14.00;99.90;;;;;;5045899;28;20163;-79
2023/10/10 00:07:15;;;;;;;0.60;0.55;;;14.00;99.90;;;;;;5033828;28;20099;-79
2023/10/10 00:09:44;;;;;;;0.35;0.30;;;14.00;99.90;;;;;;5033414;28;20118;-78
2023/10/10 00:12:18;;;;;;;0.08;0.05;;;13.90;99.90;;;;;;5031654;28;20049;-79
2023/10/10 00:14:50;;;;;;;0.63;0.47;;;13.90;99.90;;;;;;5019086;28;20485;-78
2023/10/10 00:17:16;;;;;;;0.40;0.20;;;13.90;99.90;;;;;;5034081;28;20053;-80
2023/10/10 00:19:45;;;;;;;0.20;0.10;;;13.90;99.90;;;;;;5033863;28;20049;-78
2023/10/10 00:22:12;;;;;;;0.77;0.50;;;13.90;99.90;;;;;;5034014;28;20049;-79
2023/10/10 00:24:38;;;;;;;0.13;0.10;;;13.90;99.90;;;;;;5034417;28;20049;-78
2023/10/10 00:27:12;;;;;;;0.10;0.10;;;13.90;99.90;;;;;;5033883;28;20070;-78
2023/10/10 00:29:42;;;;;;;0.30;0.20;;;13.90;99.90;;;;;;5016802;28;20044;-78
2023/10/10 00:32:17;;;;;;;0.47;0.40;;;13.90;99.90;;;;;;5041431;28;20041;-79
2023/10/10 00:34:47;;;;;;;0.35;0.30;;;13.90;99.90;;;;;;5052031;28;20048;-78
2023/10/10 00:37:25;;;;;;;0.00;0.00;;;14.00;99.90;;;;;;5044720;28;20505;-78
2023/10/10 00:39:54;;;;;;;0.20;0.20;;;14.00;99.90;;;;;;5044655;28;20124;-78
2023/10/10 00:42:36;;;;;;;0.20;0.20;;;14.00;99.90;;;;;;5051976;28;20094;-79
2023/10/10 00:45:10;;;;;;;0.85;0.55;;;14.00;99.90;;;;;;5052334;28;20056;-78
2023/10/10 00:47:45;;;;;;;0.00;0.00;;;14.10;99.90;;;;;;5051471;28;20057;-78
2023/10/10 00:50:18;;;;;;;0.00;0.00;;;14.10;99.90;;;;;;5051555;28;20037;-78
2023/10/10 00:52:48;;;;;;;0.82;0.57;;;14.10;99.90;;;;;;5050293;28;20041;-78
2023/10/10 00:55:14;;;;;;;0.40;0.22;;;14.10;99.90;;;;;;5052894;28;20056;-78
2023/10/10 00:57:43;;;;;;;0.75;0.25;;;14.10;99.90;;;;;;5052519;28;20056;-79
2023/10/10 01:00:15;;;;;;;0.55;0.50;;;14.10;99.90;;;;;;5050765;28;20037;-79
2023/10/10 01:02:42;;;;;;;0.30;0.30;;;14.10;99.90;;;;;;5051947;28;20120;-78
2023/10/10 01:05:16;;;;;;;0.45;0.45;;;14.10;99.90;;;;;;5052339;28;20041;-79
2023/10/10 01:07:53;;;;;;;0.43;0.43;;;14.10;99.90;;;;;;5053003;28;20049;-79
2023/10/10 01:10:19;;;;;;;1.38;0.82;;;14.10;99.90;;;;;;5047908;28;20083;-79
2023/10/10 01:12:46;;;;;;;1.08;0.20;;;14.10;99.90;;;;;;5054083;28;20041;-79
2023/10/10 01:15:29;;;;;;;0.10;0.10;;;14.00;99.90;;;;;;5055752;28;20416;-78
2023/10/10 01:17:56;;;;;;;0.43;0.43;;;14.00;99.90;;;;;;5055658;28;20076;-78
2023/10/10 01:20:34;;;;;;;0.38;0.38;;;14.00;99.90;;;;;;5055315;28;20045;-78
2023/10/10 01:23:02;;;;;;;0.73;0.52;;;14.00;99.90;;;;;;5055622;28;20458;-78
2023/10/10 01:27:57;;;;;;;0.08;0.03;;;14.10;99.90;;;;;;5055146;28;20049;-79
2023/10/10 01:33:14;;;;;;;0.32;0.22;;;14.10;99.90;;;;;;5054950;28;20063;-79
2023/10/10 01:35:41;;;;;;;0.00;0.00;;;14.10;99.90;;;;;;5055831;28;20128;-79
2023/10/10 01:38:38;;;;;;;0.73;0.65;;;14.20;99.90;;;;;;5053981;28;20044;-79
2023/10/10 01:41:22;;;;;;;2.70;0.32;;;14.20;99.90;;;;;;5049780;28;20041;-79
2023/10/10 01:43:53;;;;;;;0.85;0.68;;;14.30;99.90;;;;;;5055328;28;20136;-77
2023/10/10 01:46:27;;;;;;;1.33;0.30;;;14.30;99.90;;;;;;5055745;28;20052;-79
2023/10/10 01:48:56;;;;;;;0.45;0.40;;;14.40;99.90;;;;;;5055811;28;20056;-78
2023/10/10 01:51:25;;;;;;;0.20;0.20;;;14.40;99.90;;;;;;5052298;28;20118;-79
2023/10/10 01:53:52;;;;;;;1.25;0.60;;;14.40;99.90;;;;;;5048750;28;20053;-79
2023/10/10 01:56:18;;;;;;;0.55;0.55;;;14.50;99.90;;;;;;5055059;28;20053;-78
2023/10/10 01:58:43;;;;;;;1.98;0.52;;;14.50;99.90;;;;;;5055356;28;20044;-79
2023/10/10 02:01:19;;;;;;;0.52;0.32;;;14.50;99.90;;;;;;5052887;28;20486;-79
2023/10/10 02:03:46;;;;;;;0.43;0.43;;;14.50;99.90;;;;;;5054993;28;20487;-78
2023/10/10 02:06:39;;;;;;;0.35;0.35;;;14.50;99.90;;;;;;5055392;28;20120;-79
2023/10/10 02:09:11;;;;;;;0.50;0.43;;;14.60;99.90;;;;;;5052635;28;20053;-79
2023/10/10 02:11:49;;;;;;;;;;;14.50;99.90;;;;;;5054949;28;20045;-78
2023/10/10 02:14:25;;;;;;;4.40;1.38;;;14.60;99.90;;;;;;5055176;28;19924;-79
2023/10/10 02:16:54;;;;;;;0.55;0.47;;;14.60;99.90;;;;;;5052470;28;20049;-78
2023/10/10 02:19:39;;;;;;;3.85;0.43;;;14.60;99.90;;;;;;5053240;28;20073;-79
2023/10/10 02:22:33;;;;;;;0.10;0.10;;;14.60;99.90;;;;;;5054395;28;20041;-79
2023/10/10 02:25:46;;;;;;;0.40;0.40;;;14.60;99.90;;;;;;5050821;28;20049;-79
2023/10/10 02:27:54;;;;;;;0.13;0.10;;;14.60;99.90;;;;;;5043187;28;20052;-79
2023/10/10 02:30:34;;;;;;;1.45;0.65;;;14.60;99.90;;;;;;5054192;28;20036;-79
2023/10/10 02:33:48;;;;;;;1.38;0.22;;;14.60;99.90;;;;;;5054976;28;20486;-79
2023/10/10 02:35:56;;;;;;;0.50;0.25;;;14.60;99.90;;;;;;5049572;28;20052;-79
2023/10/10 02:38:32;;;;;;;0.28;0.20;;;14.70;99.90;;;;;;5054824;28;20044;-78
2023/10/10 02:44:08;;;;;;;0.40;0.40;;;14.70;99.90;;;;;;5052843;28;20059;-79
2023/10/10 02:46:40;;;;;;;0.45;0.43;;;14.70;99.90;;;;;;5045707;28;20049;-79
2023/10/10 02:49:12;;;;;;;0.20;0.20;;;14.60;99.90;;;;;;5053287;28;20056;-77
2023/10/10 02:51:43;;;;;;;0.70;0.50;;;14.70;99.90;;;;;;5054477;28;20098;-78
2023/10/10 02:54:28;;;;;;;0.32;0.32;;;14.70;99.90;;;;;;5045441;28;20047;-78
2023/10/10 02:56:59;;;;;;;0.27;0.20;;;14.70;99.90;;;;;;5053604;28;20059;-78
2023/10/10 02:59:38;;;;;;;0.43;0.43;;;14.70;99.90;;;;;;5052949;28;20356;-78
2023/10/10 03:02:09;;;;;;;0.65;0.38;;;14.60;99.90;;;;;;5052973;28;20406;-78
2023/10/10 03:07:28;;;;;;;0.00;0.00;;;14.60;99.90;;;;;;5046201;28;20056;-78
2023/10/10 03:12:44;;;;;;;0.10;0.08;;;14.70;99.90;;;;;;5053896;28;20113;-78
2023/10/10 03:15:27;;;;;;;2.35;0.30;;;14.70;99.90;;;;;;5054052;28;20486;-78
2023/10/10 03:25:51;;;;;;;0.45;0.35;;;14.70;99.90;;;;;;5045122;28;20077;-78
2023/10/10 03:28:19;;;;;;;0.13;0.13;;;14.70;99.90;;;;;;5053319;28;20076;-78
2023/10/10 03:30:51;;;;;;;0.30;0.30;;;14.70;99.90;;;;;;5052958;28;20041;-78
2023/10/10 03:34:31;;;;;;;0.60;0.60;;;14.70;99.90;;;;;;5053078;28;20123;-78
2023/10/10 05:25:31;;;;;;;0.85;0.68;;;14.50;99.90;;;;;;5047057;28;20072;-78
2023/10/10 05:27:58;;;;;;;2.28;1.23;;;14.40;99.90;;;;;;5052400;28;20503;-78
2023/10/10 05:30:25;;;;;;;1.30;1.20;;;14.30;99.90;;;;;;5053193;28;20090;-78
2023/10/10 05:33:00;;;;;;;1.17;0.60;;;14.30;99.90;;;;;;5050791;28;20045;-78
2023/10/10 05:35:38;;;;;;;3.47;1.58;;;14.30;99.90;;;;;;5044172;28;20048;-78
2023/10/10 05:38:07;;;;;;;2.10;0.75;;;14.40;99.90;;;;;;5052797;28;20033;-78
2023/10/10 05:40:33;;;;;;;1.02;0.85;;;14.40;99.90;;;;;;5045585;28;20372;-78
2023/10/10 05:43:00;;;;;;;3.35;1.08;;;14.30;99.90;;;;;;5053427;28;20057;-78
2023/10/10 05:45:26;;;;;;;1.02;0.70;;;14.30;99.90;;;;;;5053839;28;20040;-78
2023/10/10 05:47:52;;;;;;;0.57;0.57;;;14.30;99.90;;;;;;5053487;28;20526;-78
2023/10/10 05:50:18;;;;;;;1.20;0.93;;;14.40;99.90;;;;;;5052517;28;20350;-78
2023/10/10 05:52:44;;;;;;;3.83;1.73;;;14.40;99.90;;;;;;5052609;28;20656;-78
2023/10/10 05:55:10;;;;;;;1.08;0.98;;;14.40;99.90;;;;;;5044121;28;20048;-78
2023/10/10 05:57:39;;;;;;;2.17;1.02;;;14.40;99.90;;;;;;5053198;28;20041;-78
2023/10/10 06:00:16;;;;;;;0.65;0.57;;;14.20;99.90;;;;;;5053685;28;20049;-78
2023/10/10 06:02:45;;;;;;;0.00;0.00;;;14.10;99.90;;;;;;5051246;28;20414;-78
2023/10/10 06:05:12;;;;;;;2.40;1.85;;;14.10;99.90;;;;;;5053779;28;20167;-78
2023/10/10 06:07:44;;;;;;;0.68;0.68;;;14.10;99.90;;;;;;5051817;28;20044;-78
2023/10/10 06:10:17;;;;;;;7.00;1.33;;;14.10;99.90;;;;;;5043601;28;20045;-78
2023/10/10 06:12:49;;;;;;;2.35;0.93;;;14.10;99.90;;;;;;5032164;28;20044;-78
2023/10/10 06:15:17;;;;;;;1.90;1.60;;;14.10;99.90;;;;;;5031233;28;20040;-78
2023/10/10 06:17:51;;;;;;;3.42;2.15;;;14.10;99.90;;;;;;5033339;28;20048;-78
2023/10/10 06:20:21;;;;;;;2.38;2.03;;;14.10;99.90;;;;;;5038232;28;20037;-77
2023/10/10 06:22:50;;;;;;;1.63;1.20;;;14.20;99.90;;;;;;5030127;28;20080;-79
2023/10/10 06:25:17;;;;;;;1.10;1.00;;;14.20;99.90;;;;;;5022121;28;20044;-77
2023/10/10 06:27:54;;;;;;;3.30;1.38;;;14.30;99.90;;;;;;5033530;28;20044;-78
2023/10/10 06:30:20;;;;;;;6.68;2.15;;;14.30;99.90;;;;;;5042158;28;20041;-78
2023/10/10 06:32:47;;;;;;;2.38;1.33;;;14.40;99.90;;;;;;5050580;28;20414;-77
2023/10/10 06:35:27;;;;;;;1.92;1.17;;;14.40;99.90;;;;;;5049319;28;20053;-77
2023/10/10 06:37:53;;;;;;;3.50;1.15;;;14.50;99.90;;;;;;5049025;28;20075;-77
2023/10/10 06:40:25;;;;;;;8.77;2.42;;;14.50;99.90;;;;;;5031442;28;20036;-78
2023/10/10 06:42:56;;;;;;;2.00;1.85;;;14.50;99.90;;;;;;5030809;28;20509;-78
2023/10/10 06:45:26;;;;;;;4.00;2.47;;;14.60;99.90;;;;;;5031201;28;20080;-78
2023/10/10 06:47:52;;;;;;;3.17;2.47;;;14.70;99.90;;;;;;5032030;28;20052;-79
2023/10/10 06:50:21;;;;;;;3.67;1.70;;;14.80;99.90;;;;;;5031747;28;20045;-78
2023/10/10 06:52:52;;;;;;;1.00;0.55;;;14.90;99.90;;;;;;5031931;28;20090;-78
2023/10/10 06:55:22;;;;;;;3.67;1.88;;;15.00;99.90;;;;;;5029639;28;20124;-78
2023/10/10 06:58:01;;;;;;;1.15;0.73;;;15.00;99.90;;;;;;5031288;28;20072;-79
2023/10/10 07:02:58;;;;;;;1.23;0.80;;;15.20;99.90;;;;;;5040694;28;20562;-78
2023/10/10 07:05:27;;;;;;;2.60;1.55;;;15.20;99.90;;;;;;5050485;28;20044;-78
2023/10/10 07:08:00;;;;;;;0.93;0.85;;;15.20;99.90;;;;;;5050996;28;20037;-78
2023/10/10 07:10:33;;;;;;;2.65;1.48;;;15.30;99.90;;;;;;5038484;28;20033;-78
2023/10/10 07:13:10;;;;;;;2.75;1.90;;;15.40;99.90;;;;;;5031747;28;20416;-78
2023/10/10 07:15:39;;;;;;;2.15;1.60;;;15.40;99.90;;;;;;5030270;28;20171;-78
2023/10/10 07:18:14;;;;;;;3.30;1.80;;;15.50;99.90;;;;;;5031289;28;20103;-78
2023/10/10 07:21:30;;;;;;;3.97;2.00;;;15.60;99.90;;;;;;5048019;28;20055;-78
2023/10/10 07:23:38;;;;;;;3.60;1.65;;;15.70;99.90;;;;;;5047647;28;20061;-78
2023/10/10 07:26:20;;;;;;;1.77;1.58;;;15.90;99.90;;;;;;5052878;28;20053;-78
2023/10/10 07:28:49;;;;;;;1.50;1.27;;;15.90;99.90;;;;;;5052919;28;20059;-78
2023/10/10 07:31:17;;;;;;;2.15;1.70;;;16.00;20.90;;;;;;5042867;28;20053;-79
2023/10/10 07:34:03;;;;;;;1.60;1.13;;;16.20;99.90;;;;;;5040694;28;20192;-78
2023/10/10 07:36:31;;;;;;;3.75;1.60;;;16.30;99.90;;;;;;5041908;28;20053;-79
2023/10/10 07:41:46;;;;;;;4.38;2.13;;;16.30;99.90;;;;;;5048908;28;20049;-78
2023/10/10 07:44:16;;;;;;;1.48;1.38;;;16.20;99.90;;;;;;5050869;28;20510;-78
2023/10/10 07:47:19;;;;;;;2.97;2.50;;;16.20;99.90;;;;;;5052290;28;20044;-78
2023/10/10 07:49:28;;;;;;;2.42;1.67;;;16.30;1.00;;;;;;5052118;28;20136;-78
2023/10/10 07:51:53;;;;;;;4.13;2.88;;;16.30;99.90;;;;;;5051507;28;20114;-78
2023/10/10 07:54:30;;;;;;;3.42;2.25;;;16.30;99.90;;;;;;5052175;28;20044;-78
2023/10/10 07:56:55;;;;;;;;;;;16.30;99.90;;;;;;5045983;28;20053;-78
2023/10/10 07:59:21;;;;;;;2.95;2.22;;;16.50;99.90;;;;;;5051869;28;20054;-78
2023/10/10 08:01:48;;;;;;;6.40;1.70;;;16.50;99.90;;;;;;5052086;28;20490;-77
2023/10/10 08:04:14;;;;;;;3.83;1.83;;;16.50;99.90;;;;;;5051719;28;20084;-78
2023/10/10 08:06:44;;;;;;;3.53;2.90;;;16.50;99.90;;;;;;5051481;28;20098;-78
2023/10/10 08:11:43;;;;;;;3.47;2.22;;;16.80;99.90;;;;;;5050969;28;20402;-78
2023/10/10 08:14:09;;;;;;;5.97;3.38;;;17.00;99.90;;;;;;5052230;28;20044;-78
2023/10/10 08:16:36;;;;;;;5.72;2.95;;;17.20;1.00;;;;;;5052484;28;20502;-78
2023/10/10 08:19:08;;;;;;;2.38;1.80;;;17.40;1.00;;;;;;5055360;28;20055;-78
2023/10/10 08:21:48;;;;;;;3.15;2.85;;;17.70;99.90;;;;;;5055506;28;20048;-78
2023/10/10 08:24:15;;;;;;;5.30;2.63;;;17.90;99.90;;;;;;5047304;28;20081;-78
2023/10/10 08:26:41;;;;;;;5.85;4.18;;;18.10;68.60;;;;;;5055381;28;20052;-78
2023/10/10 08:29:11;;;;;;;3.15;2.45;;;18.00;99.90;;;;;;5055586;28;20033;-78
2023/10/10 08:31:42;;;;;;;5.43;3.17;;;18.00;99.90;;;;;;5055394;28;20537;-78
2023/10/10 08:34:11;;;;;;;4.28;2.30;;;18.00;74.00;;;;;;5055191;28;20077;-78
2023/10/10 08:36:43;;;;;;;9.68;5.70;;;18.00;62.80;;;;;;5055427;28;20041;-78
2023/10/10 08:39:32;;;;;;;7.20;4.10;;;18.00;64.90;;;;;;5055476;28;20128;-78
2023/10/10 08:41:58;;;;;;;1.90;1.67;;;18.10;99.90;;;;;;5055146;28;20139;-78
2023/10/10 08:44:29;;;;;;;10.25;4.45;;;18.30;99.90;;;;;;5055566;28;20041;-78
2023/10/10 08:46:58;;;;;;;4.05;2.88;;;18.40;99.90;;;;;;5055041;28;20052;-78
2023/10/10 08:49:28;;;;;;;9.45;2.85;;;18.40;1.00;;;;;;5054385;28;20041;-78
2023/10/10 08:52:00;;;;;;;2.97;2.42;;;18.50;99.90;;;;;;5054537;28;20071;-78
2023/10/10 08:54:27;;;;;;;5.68;3.92;;;18.60;17.70;;;;;;5053608;28;20067;-77
2023/10/10 08:57:10;;;;;;;6.82;4.75;;;18.60;99.90;;;;;;5053141;28;20088;-78
2023/10/10 08:59:42;;;;;;;4.57;3.13;;;18.80;61.40;;;;;;5052058;28;20564;-78
2023/10/10 09:02:09;;;;;;;14.80;5.18;;;18.90;1.00;;;;;;5052598;28;20107;-77
2023/10/10 09:04:34;;;;;;;21.23;4.30;;;18.80;99.90;;;;;;5052599;28;20052;-78
2023/10/10 09:07:08;;;;;;;5.38;3.55;;;18.80;99.90;;;;;;5053151;28;20040;-78
2023/10/10 09:09:35;;;;;;;16.20;3.28;;;18.80;49.60;;;;;;5053153;28;20441;-78
2023/10/10 09:12:12;;;;;;;2.15;1.80;;;18.70;99.90;;;;;;5045007;28;20103;-78
2023/10/10 09:14:51;;;;;;;6.57;3.63;;;18.70;99.90;;;;;;5052575;28;20500;-78
2023/10/10 09:17:34;;;;;;;10.38;3.40;;;18.70;82.40;;;;;;5046421;28;20475;-77
2023/10/10 09:20:03;;;;;;;3.83;2.83;;;18.80;1.00;;;;;;5052857;28;20029;-78
2023/10/10 09:22:42;;;;;;;5.97;3.28;;;18.80;23.10;;;;;;5052732;28;20052;-78
2023/10/10 09:28:18;;;;;;;4.45;3.33;;;19.10;99.90;;;;;;5031585;28;20069;-77
2023/10/10 09:30:59;;;;;;;6.53;3.83;;;19.20;99.90;;;;;;5031729;28;20139;-77
2023/10/10 09:33:29;;;;;;;5.00;3.22;;;19.10;99.90;;;;;;5034011;28;20065;-78
2023/10/10 09:36:09;;;;;;;5.25;3.78;;;19.40;1.00;;;;;;5032722;28;20053;-77
2023/10/10 09:38:43;;;;;;;6.65;4.00;;;19.50;99.90;;;;;;5032196;28;20102;-77
2023/10/10 09:41:15;;;;;;;10.65;2.83;;;19.50;99.90;;;;;;5032549;28;20097;-77
2023/10/10 10:06:02;;;;;;;6.90;3.47;;;19.80;99.90;;;;;;5051368;28;20498;-77
2023/10/10 10:09:09;;;;;;;5.40;3.80;;;20.00;99.90;;;;;;5033586;28;20132;-77
2023/10/10 10:12:08;;;;;;;5.60;3.83;;;20.00;99.90;;;;;;5045546;28;20067;-77
2023/10/10 10:15:02;;;;;;;6.75;4.10;;;20.00;1.00;;;;;;5041523;28;20045;-78
2023/10/10 10:18:13;;;;;;;21.23;7.03;;;20.00;1.00;;;;;;5024871;28;20041;-77
2023/10/10 10:21:04;;;;;;;4.25;3.63;;;20.00;99.90;;;;;;5032918;28;20482;-77
2023/10/10 10:23:38;;;;;;;4.28;2.15;;;20.20;1.00;;;;;;5039477;28;20044;-77
2023/10/10 10:26:04;;;;;;;2.67;2.47;;;20.10;1.00;;;;;;5025687;28;21096;-77
2023/10/10 10:28:37;;;;;;;7.05;3.08;;;20.20;99.90;;;;;;5029603;28;20153;-77
2023/10/10 10:31:28;;;;;;;8.10;5.38;;;20.30;99.90;;;;;;5031802;28;20084;-77
2023/10/10 10:37:06;;;;;;;2.78;2.35;;;20.60;99.90;;;;;;5025690;28;20109;-77
2023/10/10 10:39:36;;;;;;;8.18;2.72;;;20.60;99.90;;;;;;5030580;28;20120;-77
2023/10/10 10:42:11;;;;;;;4.18;3.05;;;20.90;99.90;;;;;;5026891;28;20111;-78
2023/10/10 10:44:45;;;;;;;7.50;2.97;;;21.10;99.90;;;;;;5021082;28;20072;-77
2023/10/10 10:47:37;;;;;;;5.28;3.35;;;21.30;99.90;;;;;;5039159;28;20087;-77
2023/10/10 10:50:04;;;;;;;5.50;2.83;;;21.50;99.90;;;;;;5052191;28;20056;-78
2023/10/10 10:52:56;;;;;;;4.68;3.55;;;21.50;99.90;;;;;;5046234;28;20041;-79
2023/10/10 10:55:27;;;;;;;4.60;2.60;;;21.60;99.90;;;;;;5039729;28;20057;-79
2023/10/10 10:58:06;;;;;;;5.68;3.38;;;21.80;99.90;;;;;;5054528;28;20516;-77
2023/10/10 11:03:37;;;;;;;3.83;2.30;;;22.10;99.90;;;;;;5054981;28;20049;-78
2023/10/10 11:06:14;;;;;;;5.55;3.10;;;22.20;99.90;;;;;;5048259;28;20033;-79
2023/10/10 11:11:25;;;;;;;2.05;1.65;;;22.40;99.90;;;;;;5054699;28;20455;-77
2023/10/10 11:14:10;;;;;;;11.38;3.30;;;22.40;77.70;;;;;;5054897;28;20402;-78
2023/10/10 11:16:45;;;;;;;2.53;2.33;;;21.90;65.00;;;;;;5055008;28;20094;-77
2023/10/10 11:21:53;;;;;;;4.30;2.75;;;21.70;69.30;;;;;;5054479;28;20053;-77
2023/10/10 11:24:24;;;;;;;5.03;3.17;;;21.70;83.60;;;;;;5054740;28;20041;-77
2023/10/10 11:27:43;;;;;;;1.35;1.25;;;21.70;90.90;;;;;;5054569;28;20036;-77
2023/10/10 11:29:48;;;;;;;8.93;3.08;;;21.70;75.90;;;;;;5049415;28;20044;-77
2023/10/10 11:32:25;;;;;;;3.92;1.92;;;21.70;99.90;;;;;;5054423;28;20083;-78
2023/10/10 11:35:17;;;;;;;4.68;2.00;;;21.90;99.90;;;;;;5054777;28;20052;-78
2023/10/10 11:37:59;;;;;;;3.00;2.13;;;22.30;99.90;;;;;;5048710;28;20080;-77
2023/10/10 11:43:05;;;;;;;4.50;3.58;;;22.80;99.90;;;;;;5054294;28;20063;-78
2023/10/10 11:45:50;;;;;;;8.82;3.05;;;22.80;99.90;;;;;;5053879;28;20033;-78
2023/10/10 11:48:15;;;;;;;3.00;2.03;;;22.80;99.90;;;;;;5054231;28;20487;-79
2023/10/10 11:50:46;;;;;;;4.43;2.22;;;22.70;98.90;;;;;;5054491;28;20053;-77
2023/10/10 11:53:14;;;;;;;2.50;1.58;;;22.60;81.30;;;;;;5053339;28;20089;-77
2023/10/10 11:55:43;;;;;;;2.15;1.95;;;22.60;38.90;;;;;;5053710;28;20391;-77
2023/10/10 11:58:18;;;;;;;2.05;1.75;;;22.60;31.60;;;;;;5053949;28;20049;-78
2023/10/10 12:00:46;;;;;;;2.53;1.77;;;22.70;5.00;;;;;;5053556;28;20113;-78
2023/10/10 12:06:00;;;;;;;5.28;2.58;;;22.90;17.50;;;;;;5045466;28;20080;-77
2023/10/10 12:08:26;;;;;;;2.90;1.65;;;22.60;1.00;;;;;;5051964;28;20041;-78
2023/10/10 12:10:53;;;;;;;4.75;2.67;;;22.30;1.00;;;;;;5053406;28;20276;-77
2023/10/10 12:16:12;;;;;;;7.70;2.65;;;22.30;1.00;;;;;;5050487;28;20510;-77
2023/10/10 12:18:49;;;;;;;3.42;2.17;;;22.50;1.00;;;;;;5032044;28;20079;-77
2023/10/10 12:21:19;;;;;;;0.95;0.70;;;22.70;1.00;;;;;;5032885;28;20082;-77
2023/10/10 12:23:56;;;;;;;5.90;1.80;;;22.90;1.00;;;;;;5032000;28;20513;-78
2023/10/10 12:26:23;;;;;;;2.42;1.88;;;23.20;54.10;;;;;;5032647;28;20037;-78
2023/10/10 12:28:52;;;;;;;3.53;2.25;;;23.60;25.20;;;;;;5032466;28;20486;-78
2023/10/10 12:31:18;;;;;;;2.50;1.63;;;24.00;28.00;;;;;;5032546;28;20048;-77
2023/10/10 12:33:47;;;;;;;3.60;1.73;;;24.20;61.10;;;;;;5032068;28;20048;-78
2023/10/10 12:36:14;;;;;;;5.32;2.42;;;24.20;12.50;;;;;;5031849;28;20045;-77
2023/10/10 12:38:40;;;;;;;6.30;2.25;;;24.20;1.00;;;;;;5032546;28;20498;-77
2023/10/10 12:41:06;;;;;;;2.05;1.70;;;24.10;1.00;;;;;;5031927;28;20055;-78
2023/10/10 12:43:31;;;;;;;7.32;2.08;;;24.20;1.00;;;;;;5032039;28;20037;-78
2023/10/10 12:46:00;;;;;;;0.93;0.85;;;24.10;1.00;;;;;;5030712;28;20490;-77
2023/10/10 12:48:28;;;;;;;15.85;2.92;;;24.10;1.00;;;;;;5030212;28;20087;-78
2023/10/10 12:50:54;;;;;;;3.85;2.13;;;24.10;1.00;;;;;;5030348;28;20041;-77
2023/10/10 12:53:20;;;;;;;2.35;1.30;;;24.00;1.00;;;;;;5029810;28;20049;-77
2023/10/10 12:55:52;;;;;;;1.33;1.08;;;23.70;1.00;;;;;;5029990;28;20080;-77
2023/10/10 12:58:22;;;;;;;4.05;2.42;;;23.40;1.00;;;;;;5030640;28;20045;-77
2023/10/10 13:00:51;;;;;;;1.90;1.38;;;23.30;1.00;;;;;;5029899;28;20125;-77
2023/10/10 13:03:18;;;;;;;2.72;1.65;;;23.20;1.00;;;;;;5029984;28;20635;-77
2023/10/10 13:05:47;;;;;;;2.15;1.88;;;23.20;1.00;;;;;;5032209;28;20041;-77
2023/10/10 13:08:14;;;;;;;1.77;1.20;;;23.20;1.00;;;;;;5033993;28;20131;-77
2023/10/10 13:10:44;;;;;;;3.45;1.30;;;23.30;1.00;;;;;;5034785;28;20055;-77
2023/10/10 13:13:10;;;;;;;1.90;1.30;;;23.30;1.00;;;;;;5054225;28;20485;-77
2023/10/10 13:15:50;;;;;;;3.92;1.67;;;23.20;1.00;;;;;;5055152;28;20099;-77
2023/10/10 13:18:23;;;;;;;1.02;0.93;;;23.00;1.00;;;;;;5048702;28;20044;-77
2023/10/10 13:20:53;;;;;;;1.48;1.15;;;22.90;1.00;;;;;;5055488;28;20048;-77
2023/10/10 13:23:20;;;;;;;1.00;0.90;;;23.00;1.00;;;;;;5055583;28;20041;-77
2023/10/10 13:25:49;;;;;;;7.70;2.33;;;23.20;1.00;;;;;;5055410;28;20183;-77
2023/10/10 13:28:20;;;;;;;1.63;1.52;;;23.20;1.00;;;;;;5055293;28;20088;-77
2023/10/10 13:30:47;;;;;;;2.97;1.92;;;23.20;1.00;;;;;;5055348;28;20045;-77
2023/10/10 13:33:16;;;;;;;2.92;2.25;;;22.90;1.00;;;;;;5055140;28;20037;-77
2023/10/10 13:35:45;;;;;;;7.75;2.92;;;22.70;1.00;;;;;;5055499;28;20116;-77
2023/10/10 13:38:11;;;;;;;3.13;1.38;;;22.50;1.00;;;;;;5055183;28;20423;-77
2023/10/10 13:40:46;;;;;;;1.95;1.77;;;22.50;1.00;;;;;;5055033;28;20067;-77
2023/10/10 13:43:17;;;;;;;1.15;1.05;;;22.40;1.00;;;;;;5054993;28;20049;-77
2023/10/10 13:45:51;;;;;;;1.88;1.50;;;22.30;1.00;;;;;;5055284;28;20037;-77
2023/10/10 13:48:23;;;;;;;4.45;1.77;;;22.20;1.00;;;;;;5055219;28;20094;-77
2023/10/10 13:50:51;;;;;;;0.45;0.45;;;22.20;1.00;;;;;;5055051;28;20124;-77
2023/10/10 13:53:17;;;;;;;1.85;1.67;;;22.20;1.00;;;;;;5054919;28;20037;-77
2023/10/10 13:55:44;;;;;;;1.48;1.27;;;22.30;1.00;;;;;;5046820;28;20061;-77
2023/10/10 13:58:16;;;;;;;1.30;1.10;;;22.40;1.00;;;;;;5054662;28;20033;-77
2023/10/10 14:00:55;;;;;;;1.83;1.60;;;22.50;1.00;;;;;;5054746;28;20076;-77
2023/10/10 14:03:29;;;;;;;3.75;1.60;;;22.60;1.00;;;;;;5054866;28;20037;-76
2023/10/10 14:06:04;;;;;;;6.90;2.53;;;22.60;1.00;;;;;;5046834;28;20048;-77
2023/10/10 14:08:30;;;;;;;2.13;1.88;;;22.50;1.00;;;;;;5054661;28;20099;-76
2023/10/10 14:10:59;;;;;;;1.35;1.23;;;22.60;1.00;;;;;;5054824;28;20037;-77
2023/10/10 14:13:28;;;;;;;6.53;3.28;;;22.60;1.00;;;;;;5054739;28;20044;-77
2023/10/10 14:15:54;;;;;;;2.78;1.88;;;22.60;1.00;;;;;;5054004;28;20041;-77
2023/10/10 14:18:27;;;;;;;3.45;2.47;;;22.40;1.00;;;;;;5054588;28;20037;-77
2023/10/10 14:20:53;;;;;;;2.67;1.80;;;22.20;99.90;;;;;;5054213;28;20041;-76
2023/10/10 14:23:25;;;;;;;2.10;1.55;;;22.00;1.00;;;;;;5054607;28;20091;-76
2023/10/10 14:26:11;;;;;;;2.78;1.25;;;21.80;1.00;;;;;;5052421;28;20487;-77
2023/10/10 14:28:37;;;;;;;1.92;1.15;;;21.80;1.00;;;;;;5051180;28;20052;-77
2023/10/10 14:31:03;;;;;;;2.95;2.47;;;21.70;1.00;;;;;;5048180;28;20045;-77
2023/10/10 14:33:29;;;;;;;1.13;0.95;;;21.70;1.00;;;;;;5050933;28;20114;-77
2023/10/10 14:35:54;;;;;;;3.80;1.63;;;21.50;1.00;;;;;;5044864;28;20440;-77
2023/10/10 14:38:20;;;;;;;1.08;0.93;;;21.30;1.00;;;;;;5049111;28;20055;-77
2023/10/10 14:40:45;;;;;;;3.00;2.63;;;21.30;99.90;;;;;;5050267;28;20067;-77
2023/10/10 14:43:11;;;;;;;1.35;1.25;;;21.40;1.00;;;;;;5048751;28;20099;-77
2023/10/10 14:45:42;;;;;;;2.10;1.35;;;21.10;1.00;;;;;;5050808;28;20458;-77
2023/10/10 14:48:14;;;;;;;2.22;1.55;;;21.00;1.00;;;;;;5049801;28;20434;-77
2023/10/10 14:50:40;;;;;;;2.97;1.90;;;21.10;1.00;;;;;;5043335;28;20033;-77
2023/10/10 14:53:08;;;;;;;8.98;1.27;;;21.00;1.00;;;;;;5050713;28;20468;-77
2023/10/10 14:55:44;;;;;;;3.22;2.63;;;21.10;1.00;;;;;;5050583;28;20061;-77
2023/10/10 14:58:13;;;;;;;2.30;1.63;;;20.90;1.00;;;;;;5047870;28;20375;-77
2023/10/10 15:00:40;;;;;;;2.15;1.90;;;20.90;1.00;;;;;;5037533;28;20045;-77
2023/10/10 15:03:13;;;;;;;2.13;1.42;;;20.90;1.00;;;;;;5033193;28;20072;-76
2023/10/10 15:05:50;;;;;;;1.38;1.27;;;20.90;1.00;;;;;;5038303;28;20171;-77
2023/10/10 15:08:19;;;;;;;1.73;1.40;;;20.90;1.00;;;;;;5051908;28;20482;-77
2023/10/10 15:10:53;;;;;;;2.42;1.83;;;20.90;1.00;;;;;;5051513;28;20037;-77
2023/10/10 15:13:19;;;;;;;5.65;1.80;;;20.90;1.00;;;;;;5053510;28;20521;-77
2023/10/10 15:15:45;;;;;;;3.72;1.85;;;20.80;1.00;;;;;;5053708;28;20125;-77
2023/10/10 15:18:16;;;;;;;1.40;1.30;;;20.70;1.00;;;;;;5053588;28;20052;-77
2023/10/10 15:20:46;;;;;;;2.33;1.75;;;20.60;1.00;;;;;;5053307;28;20431;-77
2023/10/10 15:23:15;;;;;;;2.75;2.03;;;20.50;1.00;;;;;;5037448;28;20037;-77
2023/10/10 15:25:41;;;;;;;12.77;3.47;;;20.30;1.00;;;;;;5053706;28;20073;-77
2023/10/10 15:28:07;;;;;;;1.67;1.42;;;20.20;1.00;;;;;;5052753;28;20040;-77
2023/10/10 15:30:36;;;;;;;5.72;2.05;;;20.10;1.00;;;;;;5053646;28;20056;-77
2023/10/10 15:33:05;;;;;;;4.60;2.67;;;20.00;1.00;;;;;;5053493;28;20048;-77
2023/10/10 15:35:32;;;;;;;8.73;3.28;;;20.00;1.00;;;;;;5053364;28;20056;-77
2023/10/10 15:37:57;;;;;;;2.85;2.30;;;19.90;1.00;;;;;;5052173;28;20048;-77
2023/10/10 15:40:23;;;;;;;3.45;1.40;;;19.80;1.00;;;;;;5053229;28;20037;-77
2023/10/10 15:42:50;;;;;;;1.00;0.90;;;19.80;1.00;;;;;;5053518;28;20056;-77
2023/10/10 15:45:22;;;;;;;3.25;1.48;;;19.70;1.00;;;;;;5053128;28;20098;-77
2023/10/10 15:47:49;;;;;;;3.55;1.95;;;19.60;1.00;;;;;;5052908;28;20040;-76
2023/10/10 15:50:16;;;;;;;2.25;1.38;;;19.60;1.00;;;;;;5052738;28;20040;-77
2023/10/10 15:52:48;;;;;;;1.17;1.02;;;19.70;1.00;;;;;;5053213;28;20131;-77
2023/10/10 15:55:23;;;;;;;5.05;2.28;;;19.40;1.00;;;;;;5052727;28;20076;-77
2023/10/10 15:57:52;;;;;;;1.77;1.50;;;19.30;1.00;;;;;;5045583;28;20047;-77
2023/10/10 16:00:31;;;;;;;3.58;2.13;;;19.50;1.00;;;;;;5052634;28;20037;-77
2023/10/10 16:02:58;;;;;;;9.15;3.28;;;19.10;1.00;;;;;;5045960;28;20087;-77
2023/10/10 16:05:25;;;;;;;1.95;1.77;;;19.00;1.00;;;;;;5052999;28;20090;-77
2023/10/10 16:07:51;;;;;;;1.42;1.33;;;19.00;1.00;;;;;;5052718;28;20053;-76
2023/10/10 16:10:17;;;;;;;1.42;1.33;;;18.90;15.80;;;;;;5053039;28;20536;-77
2023/10/10 16:12:43;;;;;;;0.85;0.85;;;18.80;54.10;;;;;;5052917;28;20056;-77
2023/10/10 16:15:12;;;;;;;2.90;1.52;;;18.70;99.90;;;;;;5052438;28;20509;-77
2023/10/10 16:17:38;;;;;;;1.17;1.08;;;18.70;99.90;;;;;;5052639;28;20041;-77
2023/10/10 16:20:07;;;;;;;1.77;1.58;;;18.60;99.90;;;;;;5052381;28;20508;-76